Terminal Aerodrome Forecast
Issued by NWS

Home | Current Version | Previous Version | Text Only | Print | Product List | Glossary On
Versions: 1 2 3 4 5 6 7 8 9 10 11 12 13 14 15 16 17 18 19 20 21 22 23 24
000
FTAK31 PAFA 201138
TAFABT
TAF
PABT 201138Z 2012/2112 09008KT P6SM -SHRA SCT025 BKN035 OVC050
     FM201500 VRB03KT 4SM -SHRA BR BKN015 OVC025
     FM202100 VRB03KT 6SM -SHRA BR SCT015 OVC025=

USA.gov is the U.S. government's official web portal to all federal, state and local government web resources and services.